Etusivu
METAR-TAF:

METAR-TAF

Lentoasemat :

Lappeenranta, Suomi

Lappeenrannan lentoasema

Leveyspiiri: 61-02-45N, Pituuspiiri: 028-08-55E, korkeus merenpinnasta: 106 m

Tämänhetkinen sää

Tämä raportti tehtiin 16 minuuttia sitten, kello 11.20 UTC
Tuuli 10 kn pohjoisen/luoteesta, vaihdellen lännen/luoteen ja pohjoisen/koillisen välillä
Lämpötila 9°C
Kosteus 66%
Ilmanpaine 1006 hPa
Näkyvyys 10 km tai enemmän
Pilvistä 2200 ft:n korkeudessa

METAR: EFLP 291120Z AUTO 33010KT 300V020 9999 OVC022 09/03 Q1006

Aika: 14:36 (11:36 UTC)


TAF: puuttuu

Säähavainnot ja -ennusteet yli 4000 lentoasemalta (METAR- ja TAF-raportit).

Käytössä olevat sääasemat on merkitty karttaan keltaisilla ja punaisilla pisteillä.

Aseta hiiri pisteen päälle nähdäksesi sääaseman nimen.

Klikkaa sitten nähdäksesi säähavainnot ja -ennusteet.

Kartan vaihtaminen: klikkaa mustalla rastilla varustettuja vihreitä pisteitä, niin voit zoomata sisään; viivalla varustettua vihreää pistettä, niin voit zoomata ulos tai vihreitä nuolia, niin pääset viereisille kartoille.


METAR-TAF: